Time;durP1;ratioP1;P1;durP2;ratioP2;P2;SDS_P1;SDS_P2;PMS_P1;PMS_P2;Temp;Humidity;BMP_temperature;BMP_pressure;BME280_temperature;BME280_humidity;BME280_pressure;Samples;Min_cycle;Max_cycle;Signal;HPM_P1;HPM_P2
2022/04/24 00:01:51;;;;;;;7.07;5.70;;;;;;;18.26;64.11;99818.87;1635694;87;22142;-61
2022/04/24 00:04:18;;;;;;;7.10;5.80;;;;;;;18.36;63.74;99824.78;1630845;87;21397;-57
2022/04/24 00:06:47;;;;;;;7.90;5.63;;;;;;;18.40;63.06;99837.76;1627857;88;21350;-56
2022/04/24 00:09:15;;;;;;;8.00;5.97;;;;;;;18.42;62.95;99837.01;1627468;88;21373;-57
2022/04/24 00:11:44;;;;;;;7.60;5.30;;;;;;;18.37;63.26;99836.92;1627919;88;21188;-56
2022/04/24 00:14:11;;;;;;;8.73;5.27;;;;;;;18.32;64.09;99830.27;1627296;88;21272;-57
2022/04/24 00:16:40;;;;;;;7.33;5.40;;;;;;;18.09;65.78;99820.73;1627763;88;21284;-58
2022/04/24 00:19:09;;;;;;;6.40;5.00;;;;;;;18.12;66.67;99801.27;1626887;88;21403;-57
2022/04/24 00:21:38;;;;;;;6.37;4.90;;;;;;;18.18;66.28;99798.16;1627914;88;21298;-58
2022/04/24 00:24:08;;;;;;;6.67;4.70;;;;;;;18.13;66.74;99801.53;1627582;88;21311;-56
2022/04/24 00:26:35;;;;;;;6.80;5.00;;;;;;;18.07;67.37;99809.61;1627816;88;21753;-56
2022/04/24 00:29:03;;;;;;;6.53;4.77;;;;;;;18.11;67.09;99814.18;1627083;88;21365;-63
2022/04/24 00:31:32;;;;;;;6.73;4.70;;;;;;;18.13;66.80;99817.88;1627508;88;22318;-57
2022/04/24 00:34:00;;;;;;;5.20;4.33;;;;;;;18.12;66.97;99822.89;1627440;88;21314;-63
2022/04/24 00:36:29;;;;;;;7.00;4.97;;;;;;;18.13;66.86;99842.42;1627780;87;21828;-58
2022/04/24 00:38:56;;;;;;;9.70;4.77;;;;;;;18.03;67.61;99857.30;1627371;88;21314;-57
2022/04/24 00:41:23;;;;;;;7.37;4.80;;;;;;;17.96;68.76;99901.00;1627864;88;21491;-57
2022/04/24 00:43:53;;;;;;;7.40;4.53;;;;;;;18.05;67.97;99961.52;1627718;88;21280;-66
2022/04/24 00:46:45;;;;;;;7.50;5.40;;;;;;;18.06;68.02;99994.77;1626989;87;21871;-61
2022/04/24 00:49:12;;;;;;;6.77;5.37;;;;;;;18.00;68.84;99983.87;1620941;88;21302;-58
2022/04/24 00:51:40;;;;;;;6.50;5.33;;;;;;;18.18;68.05;99966.98;1627369;88;21442;-61
2022/04/24 00:54:08;;;;;;;7.03;5.47;;;;;;;18.23;67.72;99973.69;1627497;88;21906;-65
2022/04/24 00:56:40;;;;;;;7.30;5.67;;;;;;;18.19;67.92;99995.79;1627669;88;21135;-58
2022/04/24 00:59:09;;;;;;;7.20;4.87;;;;;;;18.40;66.30;100001.38;1627921;88;21707;-58
2022/04/24 01:01:37;;;;;;;6.40;5.00;;;;;;;18.24;67.18;99993.22;1627464;88;20947;-56
2022/04/24 01:04:07;;;;;;;6.80;5.40;;;;;;;18.56;64.81;99977.32;1630293;87;21288;-60
2022/04/24 01:06:39;;;;;;;7.53;5.70;;;;;;;18.31;65.80;99998.88;1635224;87;21443;-56
2022/04/24 01:09:19;;;;;;;8.23;5.43;;;;;;;18.48;65.50;100003.61;1635581;87;21414;-58
2022/04/24 01:11:50;;;;;;;9.47;5.73;;;;;;;18.39;66.41;99997.14;1635641;87;21364;-56
2022/04/24 01:14:18;;;;;;;9.13;6.80;;;;;;;18.19;68.54;99993.15;1635507;87;21405;-58
2022/04/24 01:16:46;;;;;;;10.23;7.00;;;;;;;18.19;68.54;99993.15;1635670;87;21913;-57
2022/04/24 01:19:15;;;;;;;13.40;7.23;;;;;;;18.23;69.45;100000.06;1635042;87;21886;-60
2022/04/24 01:21:45;;;;;;;10.07;6.20;;;;;;;18.23;70.31;100002.19;1635708;87;21412;-65
2022/04/24 01:24:13;;;;;;;9.20;6.60;;;;;;;18.37;71.32;99986.02;1635264;87;21373;-57
2022/04/24 01:26:40;;;;;;;9.40;6.43;;;;;;;18.22;74.44;99991.36;1635953;87;21319;-59
2022/04/24 01:29:09;;;;;;;10.40;7.50;;;;;;;17.77;80.60;100001.11;1635029;87;21343;-66
2022/04/24 01:31:39;;;;;;;9.80;7.30;;;;;;;17.71;83.58;99986.49;1635611;87;21863;-57
2022/04/24 01:34:07;;;;;;;9.80;6.63;;;;;;;17.68;84.21;99980.89;1635401;87;21798;-65
2022/04/24 01:36:34;;;;;;;9.13;7.07;;;;;;;17.71;84.57;99988.33;1635634;87;21460;-58
2022/04/24 01:39:04;;;;;;;10.13;6.80;;;;;;;17.90;82.39;99989.75;1635097;87;22434;-57
2022/04/24 01:41:33;;;;;;;10.60;7.50;;;;;;;17.92;82.11;99987.70;1635743;87;21332;-59
2022/04/24 01:44:01;;;;;;;10.73;6.90;;;;;;;17.78;84.40;99982.95;1635111;87;21386;-59
2022/04/24 01:46:28;;;;;;;10.37;7.00;;;;;;;17.79;84.82;99984.55;1635200;87;21413;-57
2022/04/24 01:48:56;;;;;;;11.17;6.93;;;;;;;17.64;86.12;99983.20;1635396;87;22498;-63
2022/04/24 01:51:23;;;;;;;11.20;7.27;;;;;;;17.58;87.22;99979.38;1635062;87;21387;-58
2022/04/24 01:53:51;;;;;;;11.50;7.80;;;;;;;17.65;87.06;99980.04;1635487;87;21375;-57
2022/04/24 01:56:19;;;;;;;9.60;7.63;;;;;;;17.68;86.75;99982.20;1635037;87;21274;-57
2022/04/24 01:58:46;;;;;;;10.43;7.40;;;;;;;17.56;87.56;99988.85;1635531;87;21408;-56
2022/04/24 02:01:13;;;;;;;9.97;7.20;;;;;;;17.56;87.79;99983.58;1634919;87;21327;-58
2022/04/24 02:03:41;;;;;;;11.43;7.47;;;;;;;17.55;87.84;99985.94;1635863;87;21365;-57
2022/04/24 02:06:10;;;;;;;9.07;7.13;;;;;;;17.53;88.21;99990.63;1635193;87;21682;-58
2022/04/24 02:08:39;;;;;;;12.53;7.37;;;;;;;17.54;88.51;99990.94;1635189;87;21563;-60
2022/04/24 02:11:08;;;;;;;11.23;7.57;;;;;;;17.58;89.11;99993.38;1634994;87;21353;-59
2022/04/24 02:13:36;;;;;;;11.90;7.63;;;;;;;17.62;88.99;99997.67;1635429;87;22310;-57
2022/04/24 02:16:04;;;;;;;11.73;8.40;;;;;;;17.52;91.11;99996.95;1634976;87;21306;-60
2022/04/24 02:18:33;;;;;;;10.07;7.90;;;;;;;17.48;92.40;99994.50;1635247;87;21395;-58
2022/04/24 02:21:00;;;;;;;13.67;7.67;;;;;;;17.36;94.57;99997.17;1635241;87;21377;-59
2022/04/24 02:23:30;;;;;;;12.67;6.83;;;;;;;17.43;94.36;99998.37;1635257;87;21845;-58
2022/04/24 02:25:57;;;;;;;9.97;7.10;;;;;;;17.45;94.36;100002.87;1635120;87;21327;-58
2022/04/24 02:28:26;;;;;;;11.10;8.10;;;;;;;17.44;93.85;100003.91;1635533;87;21915;-57
2022/04/24 02:30:53;;;;;;;12.30;8.23;;;;;;;17.54;93.66;99992.75;1635499;87;21334;-67
2022/04/24 02:33:23;;;;;;;11.20;7.83;;;;;;;17.53;94.05;99995.11;1635608;87;21279;-57
2022/04/24 02:35:50;;;;;;;9.43;6.93;;;;;;;17.74;91.42;99994.45;1635095;87;21379;-61
2022/04/24 02:38:18;;;;;;;10.33;6.83;;;;;;;17.78;91.48;99996.13;1635423;87;21583;-58
2022/04/24 02:40:45;;;;;;;11.17;6.80;;;;;;;17.67;91.98;100002.50;1635498;87;22584;-62
2022/04/24 02:43:13;;;;;;;12.13;7.70;;;;;;;17.89;90.28;100011.10;1635287;87;21290;-58
2022/04/24 02:45:42;;;;;;;12.77;8.87;;;;;;;17.89;90.28;100011.10;1635065;87;21346;-66
2022/04/24 02:48:11;;;;;;;10.47;7.50;;;;;;;17.87;90.44;100013.16;1635447;87;21369;-57
2022/04/24 02:50:40;;;;;;;11.63;7.27;;;;;;;17.83;91.41;100015.98;1635346;87;21252;-58
2022/04/24 02:53:10;;;;;;;9.60;7.10;;;;;;;18.17;87.86;100008.41;1635024;87;21219;-59
2022/04/24 02:55:38;;;;;;;10.53;7.00;;;;;;;18.19;87.81;100014.78;1635284;87;21388;-67
2022/04/24 02:58:06;;;;;;;10.63;7.50;;;;;;;18.13;88.37;100001.21;1635893;87;21526;-58
2022/04/24 03:00:43;;;;;;;12.67;9.23;;;;;;;18.11;89.87;99989.59;1635627;87;21390;-58
2022/04/24 03:03:10;;;;;;;11.17;7.67;;;;;;;17.99;92.69;99959.34;1635621;87;21915;-60
2022/04/24 03:05:38;;;;;;;12.43;7.80;;;;;;;17.78;98.00;99940.25;1635172;87;21297;-58
2022/04/24 03:08:08;;;;;;;11.83;8.77;;;;;;;17.63;100.00;99924.14;1635570;87;22004;-60
2022/04/24 03:10:36;;;;;;;11.00;7.50;;;;;;;17.34;100.00;99916.76;1635276;87;21323;-68
2022/04/24 03:13:04;;;;;;;10.73;8.23;;;;;;;17.24;100.00;99906.33;1635501;87;22131;-60
2022/04/24 03:15:32;;;;;;;11.03;7.53;;;;;;;17.08;100.00;99907.58;1635365;87;21315;-60
2022/04/24 03:18:00;;;;;;;9.53;7.30;;;;;;;17.07;100.00;99908.09;1635893;87;21341;-59
2022/04/24 03:20:27;;;;;;;17.03;8.57;;;;;;;17.00;100.00;99919.27;1635941;87;21454;-58
2022/04/24 03:22:54;;;;;;;12.13;8.20;;;;;;;16.76;100.00;99910.64;1634703;87;21372;-58
2022/04/24 03:25:23;;;;;;;9.43;7.27;;;;;;;16.76;100.00;99904.06;1634770;87;21279;-59
2022/04/24 03:27:52;;;;;;;13.33;9.00;;;;;;;16.80;100.00;99908.34;1635968;87;21629;-57
2022/04/24 03:30:20;;;;;;;11.60;8.43;;;;;;;16.76;100.00;99898.27;1635799;87;21331;-59
2022/04/24 03:32:48;;;;;;;10.30;8.00;;;;;;;16.84;100.00;99889.73;1635110;87;21316;-65
2022/04/24 03:35:15;;;;;;;12.00;7.47;;;;;;;16.73;100.00;99881.63;1635259;87;21588;-59
2022/04/24 03:37:44;;;;;;;11.00;8.03;;;;;;;16.60;100.00;99876.60;1635613;87;21565;-58
2022/04/24 03:40:11;;;;;;;9.43;7.63;;;;;;;16.69;100.00;99873.88;1635895;87;21923;-57
2022/04/24 03:42:40;;;;;;;12.70;8.40;;;;;;;16.86;100.00;99865.28;1635413;87;21674;-59
2022/04/24 03:45:11;;;;;;;12.17;7.60;;;;;;;16.94;100.00;99862.30;1635080;87;21947;-68
2022/04/24 03:47:40;;;;;;;10.15;6.47;;;;;;;16.99;100.00;99858.44;1635912;87;22044;-59
2022/04/24 03:50:09;;;;;;;12.87;8.00;;;;;;;17.03;100.00;99851.14;1635879;87;21066;-61
2022/04/24 03:52:38;;;;;;;9.10;7.40;;;;;;;17.56;100.00;99835.99;1635589;87;21232;-67
2022/04/24 03:55:07;;;;;;;11.63;7.40;;;;;;;17.57;100.00;99825.72;1635004;87;21882;-61
2022/04/24 03:57:36;;;;;;;8.13;6.47;;;;;;;17.71;100.00;99791.95;1635828;87;21662;-57
2022/04/24 04:00:05;;;;;;;7.90;5.90;;;;;;;17.73;100.00;99774.86;1635852;87;21178;-57
2022/04/24 04:02:46;;;;;;;12.15;5.92;;;;;;;17.83;100.00;99772.11;1635255;87;21918;-62
2022/04/24 04:05:16;;;;;;;7.57;6.37;;;;;;;18.00;100.00;99772.89;1632910;87;21089;-59
2022/04/24 04:07:44;;;;;;;10.23;7.50;;;;;;;18.19;100.00;99768.91;1627833;88;21365;-57
2022/04/24 04:10:12;;;;;;;8.67;6.63;;;;;;;18.33;100.00;99767.22;1627594;88;21330;-61
2022/04/24 04:12:41;;;;;;;9.53;7.80;;;;;;;18.47;100.00;99753.92;1627334;88;21874;-58
2022/04/24 04:15:11;;;;;;;11.27;7.83;;;;;;;18.18;100.00;99762.05;1627328;88;21307;-59
2022/04/24 04:17:40;;;;;;;9.67;7.03;;;;;;;18.22;100.00;99791.34;1627910;88;22082;-58
2022/04/24 04:20:11;;;;;;;9.80;7.23;;;;;;;18.18;100.00;99858.34;1627977;88;21309;-58
2022/04/24 04:22:52;;;;;;;10.47;7.60;;;;;;;18.12;100.00;99968.77;1627396;88;21751;-57
2022/04/24 04:25:17;;;;;;;10.27;7.13;;;;;;;18.24;100.00;100031.48;1627031;87;21653;-59
2022/04/24 04:27:45;;;;;;;8.03;6.07;;;;;;;18.11;100.00;100029.16;1627972;88;21257;-59
2022/04/24 04:30:13;;;;;;;8.90;6.20;;;;;;;18.27;100.00;100022.81;1627325;87;21194;-58
2022/04/24 04:32:41;;;;;;;8.30;5.87;;;;;;;18.22;100.00;100037.53;1627572;88;21565;-68
2022/04/24 04:35:09;;;;;;;8.87;7.27;;;;;;;18.29;100.00;100031.28;1627721;88;22210;-58
2022/04/24 04:37:37;;;;;;;9.80;7.13;;;;;;;18.66;100.00;100028.95;1627884;88;21798;-59
2022/04/24 04:40:06;;;;;;;8.70;6.87;;;;;;;19.12;100.00;100031.73;1627451;88;21431;-61
2022/04/24 04:42:34;;;;;;;9.50;7.00;;;;;;;19.77;100.00;100026.16;1627836;88;22104;-60
2022/04/24 04:45:01;;;;;;;9.47;6.53;;;;;;;20.38;100.00;100023.27;1627334;88;21727;-60
2022/04/24 04:47:28;;;;;;;11.77;7.30;;;;;;;20.83;100.00;100014.06;1627572;88;21492;-58
2022/04/24 04:49:58;;;;;;;9.73;6.50;;;;;;;21.25;100.00;100006.07;1627527;88;21672;-59
2022/04/24 04:52:25;;;;;;;9.40;6.50;;;;;;;21.58;90.14;99991.59;1627915;88;22469;-59
2022/04/24 04:54:52;;;;;;;9.80;7.70;;;;;;;21.82;83.86;99987.94;1627264;88;21097;-61
2022/04/24 04:57:20;;;;;;;9.77;6.73;;;;;;;21.87;78.61;99989.80;1627950;88;21113;-59
2022/04/24 04:59:47;;;;;;;9.97;7.43;;;;;;;21.86;73.52;99969.09;1627412;88;21172;-70
2022/04/24 05:02:14;;;;;;;10.00;7.20;;;;;;;21.79;72.97;99938.05;1627303;88;21600;-58
2022/04/24 05:04:43;;;;;;;9.60;7.10;;;;;;;21.81;71.54;99923.97;1627679;88;21087;-61
2022/04/24 05:07:11;;;;;;;10.13;7.70;;;;;;;21.64;71.06;99933.27;1627100;87;21075;-59
2022/04/24 05:09:39;;;;;;;9.00;6.37;;;;;;;21.54;74.94;99961.34;1627610;88;21051;-58
2022/04/24 05:12:10;;;;;;;9.27;7.50;;;;;;;21.62;76.28;99966.67;1627470;87;21057;-61
2022/04/24 05:14:38;;;;;;;8.20;6.67;;;;;;;21.69;75.89;99971.73;1627210;88;21497;-59
2022/04/24 05:17:06;;;;;;;9.77;6.93;;;;;;;21.62;77.31;99992.66;1627798;88;21889;-59
2022/04/24 05:19:35;;;;;;;7.57;6.60;;;;;;;21.49;75.71;99991.05;1627773;87;21564;-59
2022/04/24 05:22:05;;;;;;;10.27;6.67;;;;;;;21.37;72.25;99984.66;1627343;88;21071;-60
2022/04/24 05:24:33;;;;;;;9.63;6.97;;;;;;;21.28;70.14;99980.88;1627723;88;21904;-61
2022/04/24 05:27:02;;;;;;;8.73;6.53;;;;;;;21.17;70.82;99978.71;1627546;88;21065;-59
2022/04/24 05:29:31;;;;;;;9.50;7.13;;;;;;;20.97;71.75;99960.89;1627815;88;21014;-60
2022/04/24 05:31:58;;;;;;;9.33;7.37;;;;;;;20.41;75.64;99946.78;1627648;88;21026;-68
2022/04/24 05:34:27;;;;;;;9.27;6.33;;;;;;;20.41;75.64;99946.78;1627427;88;21057;-61
2022/04/24 05:36:54;;;;;;;9.13;6.33;;;;;;;20.21;79.65;99941.89;1627620;88;21779;-59
2022/04/24 05:39:23;;;;;;;9.63;7.17;;;;;;;20.21;79.58;99920.72;1627693;86;21728;-59
2022/04/24 05:41:52;;;;;;;8.30;6.83;;;;;;;20.04;81.81;99907.13;1627752;88;21121;-67
2022/04/24 05:44:19;;;;;;;8.30;7.03;;;;;;;19.74;84.39;99891.81;1627685;88;22163;-70
2022/04/24 05:46:47;;;;;;;8.00;6.17;;;;;;;19.56;88.06;99886.33;1627384;88;21815;-59
2022/04/24 05:49:16;;;;;;;8.47;6.53;;;;;;;19.52;91.73;99898.98;1627483;88;22336;-60
2022/04/24 05:51:44;;;;;;;8.83;6.10;;;;;;;19.43;95.74;99917.95;1628062;88;22356;-62
2022/04/24 05:54:12;;;;;;;10.13;6.83;;;;;;;19.43;97.54;99910.02;1627787;88;22294;-68
2022/04/24 05:56:41;;;;;;;7.67;6.03;;;;;;;19.44;97.04;99899.71;1627332;88;22383;-60
2022/04/24 05:59:08;;;;;;;10.50;6.50;;;;;;;19.65;97.46;99886.69;1627868;88;22559;-59
2022/04/24 06:01:36;;;;;;;8.57;6.90;;;;;;;19.68;96.93;99897.56;1628006;88;21838;-59
2022/04/24 06:04:04;;;;;;;9.20;6.97;;;;;;;19.85;96.84;99896.13;1627086;88;21708;-66
2022/04/24 06:06:33;;;;;;;10.60;6.63;;;;;;;19.91;96.52;99889.02;1631951;87;21668;-68
2022/04/24 06:09:01;;;;;;;8.63;6.77;;;;;;;20.11;94.47;99900.27;1635701;87;22133;-61
2022/04/24 06:11:29;;;;;;;9.47;7.53;;;;;;;20.07;94.73;99893.36;1633288;87;21800;-59
2022/04/24 06:13:58;;;;;;;8.90;7.00;;;;;;;20.08;94.80;99881.75;1635136;87;21779;-61
2022/04/24 06:16:26;;;;;;;8.40;6.43;;;;;;;20.21;92.14;99883.67;1635557;87;22001;-70
2022/04/24 06:18:54;;;;;;;9.40;6.43;;;;;;;20.10;95.02;99900.00;1635148;87;21768;-60
2022/04/24 06:21:22;;;;;;;10.90;7.63;;;;;;;20.15;96.03;99904.81;1635485;87;22015;-59
2022/04/24 06:23:51;;;;;;;8.67;6.50;;;;;;;20.15;97.21;99908.79;1635484;87;21751;-70
2022/04/24 06:26:18;;;;;;;8.40;6.80;;;;;;;20.22;96.22;99928.39;1635515;87;23611;-59
2022/04/24 06:28:47;;;;;;;8.50;6.03;;;;;;;20.08;94.80;99906.88;1634997;87;21621;-63
2022/04/24 06:31:15;;;;;;;9.87;6.80;;;;;;;20.08;94.90;99856.61;1635766;87;21786;-58
2022/04/24 06:33:43;;;;;;;9.30;7.00;;;;;;;19.87;97.59;99877.35;1635554;87;21763;-65
2022/04/24 06:36:11;;;;;;;13.10;6.73;;;;;;;19.61;100.00;99885.05;1635544;87;21771;-58
2022/04/24 06:38:38;;;;;;;8.77;7.37;;;;;;;19.55;100.00;99872.05;1635215;87;22356;-59
2022/04/24 06:41:07;;;;;;;10.83;6.97;;;;;;;19.38;100.00;99867.66;1635675;87;21744;-59
2022/04/24 06:43:35;;;;;;;8.87;6.57;;;;;;;19.38;100.00;99867.66;1635074;87;21684;-60
2022/04/24 06:46:04;;;;;;;9.47;6.90;;;;;;;19.54;100.00;99879.69;1635259;87;39040;-59
2022/04/24 06:48:31;;;;;;;10.50;6.97;;;;;;;19.59;100.00;99882.40;1635287;87;21717;-59
2022/04/24 06:50:59;;;;;;;11.43;7.80;;;;;;;19.97;100.00;99877.44;1635736;87;22100;-58
2022/04/24 06:53:28;;;;;;;9.27;7.17;;;;;;;20.21;100.00;99890.28;1635868;87;21606;-58
2022/04/24 06:55:57;;;;;;;8.57;7.33;;;;;;;20.31;100.00;99909.67;1634958;87;21715;-58
2022/04/24 06:58:25;;;;;;;10.50;7.40;;;;;;;19.81;100.00;99921.99;1635641;87;21848;-67
2022/04/24 07:00:53;;;;;;;10.77;8.13;;;;;;;19.13;100.00;99923.71;1635211;87;21814;-58
2022/04/24 07:03:26;;;;;;;8.60;7.17;;;;;;;19.03;100.00;99928.07;1635642;87;21751;-58
2022/04/24 07:05:57;;;;;;;9.50;7.63;;;;;;;19.06;100.00;99907.25;1635116;87;21835;-61
2022/04/24 07:08:26;;;;;;;8.20;7.28;;;;;;;18.97;100.00;99895.50;1635473;87;21793;-65
2022/04/24 07:10:55;;;;;;;;;;;;;;;18.81;100.00;99886.61;1637962;87;22117;-59
2022/04/24 07:13:22;;;;;;;11.23;7.20;;;;;;;18.86;100.00;99877.41;1635783;87;20212;-59
2022/04/24 07:15:51;;;;;;;12.07;8.10;;;;;;;18.78;100.00;99871.78;1635302;87;21664;-59
2022/04/24 07:18:19;;;;;;;10.57;7.90;;;;;;;18.59;100.00;99883.92;1635575;87;22229;-60
2022/04/24 07:20:47;;;;;;;9.63;7.37;;;;;;;18.43;100.00;99884.78;1635452;87;22143;-57
2022/04/24 07:23:15;;;;;;;8.90;6.90;;;;;;;18.39;100.00;99892.38;1635455;87;21724;-65
2022/04/24 07:25:46;;;;;;;9.30;7.30;;;;;;;18.45;100.00;99893.27;1635114;87;21839;-59
2022/04/24 07:28:15;;;;;;;10.50;7.13;;;;;;;18.55;100.00;99896.02;1635402;87;21633;-61
2022/04/24 07:30:44;;;;;;;8.23;6.53;;;;;;;18.55;100.00;99896.02;1635372;87;21538;-59
2022/04/24 07:33:13;;;;;;;8.23;6.80;;;;;;;18.58;100.00;99890.26;1635441;87;21720;-63
2022/04/24 07:35:40;;;;;;;12.37;7.03;;;;;;;18.67;100.00;99895.37;1635544;87;21732;-57
2022/04/24 07:38:08;;;;;;;9.40;7.03;;;;;;;19.05;100.00;99901.66;1635778;87;21742;-59
2022/04/24 07:40:37;;;;;;;9.87;6.93;;;;;;;19.64;100.00;99902.30;1634823;87;21765;-60
2022/04/24 07:43:08;;;;;;;6.53;5.80;;;;;;;19.64;100.00;99902.30;1635654;87;21022;-67
2022/04/24 07:45:39;;;;;;;8.63;6.23;;;;;;;20.28;100.00;99902.77;1635360;87;21461;-57
2022/04/24 07:48:12;;;;;;;6.53;5.83;;;;;;;21.16;100.00;99884.89;1635377;87;20967;-59
2022/04/24 07:50:48;;;;;;;8.93;5.93;;;;;;;;;;1635774;87;21093;-58
2022/04/24 07:53:16;;;;;;;7.03;5.70;;;;;;;22.23;100.00;99864.50;1635459;86;21148;-58
2022/04/24 07:55:47;;;;;;;7.60;5.87;;;;;;;22.66;100.00;99861.45;1635493;87;21591;-61
2022/04/24 07:58:15;;;;;;;8.03;6.43;;;;;;;22.77;100.00;99859.02;1635825;87;21577;-57
2022/04/24 08:00:44;;;;;;;7.23;5.43;;;;;;;22.77;98.84;99852.37;1635693;87;21058;-57
2022/04/24 08:03:13;;;;;;;8.57;5.80;;;;;;;23.15;100.00;99857.50;1635420;87;21529;-57
2022/04/24 08:05:45;;;;;;;6.33;4.87;;;;;;;22.93;100.00;99850.45;1635698;87;21823;-58
2022/04/24 08:08:21;;;;;;;8.57;5.83;;;;;;;23.42;100.00;99849.59;1624676;87;21122;-57
2022/04/24 08:10:56;;;;;;;7.10;5.47;;;;;;;23.66;100.00;99831.03;1624014;87;21089;-59
2022/04/24 08:13:25;;;;;;;7.23;4.77;;;;;;;23.94;99.31;99827.61;1651443;86;21019;-59
2022/04/24 08:15:53;;;;;;;7.60;5.33;;;;;;;24.19;89.59;99819.08;1651518;86;21148;-57
2022/04/24 08:18:21;;;;;;;10.60;6.10;;;;;;;24.43;88.73;99809.21;1651729;86;21257;-66
2022/04/24 08:20:49;;;;;;;6.40;5.27;;;;;;;24.61;77.79;99806.87;1651491;86;21004;-58
2022/04/24 08:23:17;;;;;;;7.90;5.60;;;;;;;24.70;74.35;99807.80;1651474;86;21844;-58
2022/04/24 08:25:46;;;;;;;6.77;5.60;;;;;;;24.75;70.68;99797.09;1651104;86;21078;-57
2022/04/24 08:28:13;;;;;;;6.87;5.40;;;;;;;25.12;68.93;99798.19;1651878;86;21944;-57
2022/04/24 08:30:44;;;;;;;8.30;5.70;;;;;;;25.39;62.11;99797.48;1651491;86;21113;-71
2022/04/24 08:33:11;;;;;;;6.53;5.20;;;;;;;25.53;54.07;99792.16;1651639;86;22112;-59
2022/04/24 08:35:38;;;;;;;6.50;4.70;;;;;;;25.21;49.39;99788.42;1651481;86;20981;-60
2022/04/24 08:38:07;;;;;;;6.73;4.70;;;;;;;25.30;49.67;99783.99;1651671;86;21472;-57
2022/04/24 08:40:34;;;;;;;7.40;4.53;;;;;;;25.48;47.63;99781.82;1651561;86;21086;-70
2022/04/24 08:43:01;;;;;;;5.27;4.43;;;;;;;25.40;47.12;99779.83;1651858;86;21960;-59
2022/04/24 08:45:30;;;;;;;5.30;4.20;;;;;;;25.63;45.78;99790.10;1652238;86;20991;-59
2022/04/24 08:47:59;;;;;;;9.90;4.63;;;;;;;25.75;45.02;99774.15;1651772;86;21557;-58
2022/04/24 08:50:31;;;;;;;7.23;3.67;;;;;;;25.69;44.10;99780.93;1650951;86;21980;-73
2022/04/24 08:52:58;;;;;;;8.33;5.67;;;;;;;25.60;44.78;99807.25;1651965;86;21173;-59
2022/04/24 08:55:30;;;;;;;7.60;4.63;;;;;;;25.76;43.42;99789.07;1651839;86;21545;-59
2022/04/24 08:57:59;;;;;;;6.93;4.20;;;;;;;25.64;42.71;99789.55;1651142;86;21071;-65
2022/04/24 09:00:29;;;;;;;5.70;3.90;;;;;;;25.61;42.42;99789.63;1651733;86;21766;-60
2022/04/24 09:02:58;;;;;;;6.50;3.63;;;;;;;25.69;43.71;99808.17;1651814;86;21078;-59
2022/04/24 09:05:27;;;;;;;7.23;4.10;;;;;;;25.98;42.88;99784.42;1651672;86;21083;-59
2022/04/24 09:08:10;;;;;;;4.67;3.67;;;;;;;26.22;43.51;99773.55;1651347;86;22236;-58
2022/04/24 09:10:53;;;;;;;4.33;3.37;;;;;;;26.42;42.65;99781.13;1651735;86;21855;-58
2022/04/24 09:13:32;;;;;;;8.13;4.57;;;;;;;26.60;42.65;99772.77;1651064;86;21545;-60
2022/04/24 09:16:02;;;;;;;5.73;4.03;;;;;;;26.86;42.25;99772.43;1651680;86;21056;-59
2022/04/24 09:18:41;;;;;;;5.77;4.03;;;;;;;27.02;41.76;99765.37;1652088;86;22105;-58
2022/04/24 09:21:13;;;;;;;5.37;3.70;;;;;;;27.00;40.85;99770.23;1651728;86;21998;-58
2022/04/24 09:23:46;;;;;;;5.40;4.07;;;;;;;27.16;39.99;99766.92;1651464;86;21054;-58
2022/04/24 09:26:16;;;;;;;9.43;3.90;;;;;;;27.03;39.11;99759.71;1651120;86;21067;-59
2022/04/24 09:28:44;;;;;;;8.10;4.80;;;;;;;27.02;39.35;99758.14;1651680;86;21019;-70
2022/04/24 09:31:11;;;;;;;7.37;4.10;;;;;;;27.08;39.47;99761.47;1651026;86;21082;-70
2022/04/24 09:33:42;;;;;;;6.27;4.37;;;;;;;26.86;39.50;99756.38;1651289;86;21187;-60
2022/04/24 09:36:10;;;;;;;6.30;4.63;;;;;;;26.79;39.48;99745.87;1651720;86;21079;-59
2022/04/24 09:38:44;;;;;;;6.33;4.40;;;;;;;26.77;39.26;99743.48;1651896;86;21744;-59
2022/04/24 09:41:18;;;;;;;7.30;5.30;;;;;;;26.57;39.75;99746.08;1650912;86;21075;-61
2022/04/24 09:43:46;;;;;;;8.70;4.97;;;;;;;26.53;39.75;99732.29;1652153;86;22105;-59
2022/04/24 09:46:13;;;;;;;5.50;4.40;;;;;;;26.48;40.51;99744.41;1651448;86;21269;-60
2022/04/24 09:48:48;;;;;;;7.37;5.20;;;;;;;26.40;41.27;99746.70;1651842;86;20948;-70
2022/04/24 09:51:15;;;;;;;6.00;4.70;;;;;;;26.60;40.84;99719.30;1616882;88;21441;-70
2022/04/24 09:53:42;;;;;;;6.83;4.30;;;;;;;26.81;40.56;99715.59;1651776;86;21064;-60
2022/04/24 09:56:11;;;;;;;7.53;4.43;;;;;;;26.83;40.58;99732.91;1651524;86;21521;-59
2022/04/24 09:58:38;;;;;;;6.73;4.03;;;;;;;26.82;40.62;99721.98;1651813;86;21322;-59
2022/04/24 10:01:08;;;;;;;7.53;5.10;;;;;;;26.85;39.97;99720.02;1651069;86;21031;-58
2022/04/24 10:03:38;;;;;;;5.73;4.00;;;;;;;26.87;40.28;99724.52;1651245;86;21447;-58
2022/04/24 10:06:05;;;;;;;4.97;3.80;;;;;;;26.92;39.20;99723.05;1651661;86;21317;-58
2022/04/24 10:08:34;;;;;;;7.83;4.50;;;;;;;26.90;39.07;99709.77;1620521;87;21015;-58
2022/04/24 10:11:06;;;;;;;5.67;3.97;;;;;;;27.09;39.52;99695.64;1644168;87;21268;-59
2022/04/24 10:13:39;;;;;;;6.00;3.17;;;;;;;27.16;39.69;99704.57;1644337;87;21426;-59
2022/04/24 10:16:46;;;;;;;4.50;3.23;;;;;;;27.16;38.58;99704.57;1644544;87;21010;-60
2022/04/24 10:19:50;;;;;;;6.33;4.20;;;;;;;27.34;38.83;99694.20;1644537;87;21176;-59
2022/04/24 10:22:40;;;;;;;5.97;4.20;;;;;;;27.36;38.96;99693.36;1643848;87;22336;-68
2022/04/24 10:25:09;;;;;;;7.13;3.83;;;;;;;27.38;38.61;99685.00;1644524;87;20919;-60
2022/04/24 10:27:44;;;;;;;7.33;3.33;;;;;;;27.40;37.85;99687.63;1643923;87;21145;-59
2022/04/24 10:30:22;;;;;;;5.57;3.87;;;;;;;27.37;38.19;99690.13;1644206;87;21042;-59
2022/04/24 10:32:51;;;;;;;6.30;3.77;;;;;;;27.20;38.82;99696.20;1644327;87;21077;-63
2022/04/24 10:35:20;;;;;;;5.37;3.70;;;;;;;27.54;38.29;99697.42;1644514;87;22454;-62
2022/04/24 10:37:48;;;;;;;6.17;4.00;;;;;;;27.65;37.92;99694.18;1644426;87;21251;-67
2022/04/24 10:40:19;;;;;;;6.70;3.70;;;;;;;27.61;37.83;99701.78;1644626;87;21013;-59
2022/04/24 10:42:47;;;;;;;4.33;2.85;;;;;;;27.68;37.23;99690.63;1644229;87;21606;-70
2022/04/24 10:45:16;;;;;;;4.27;3.10;;;;;;;27.59;37.04;99710.69;1644193;87;21103;-59
2022/04/24 10:47:55;;;;;;;5.90;2.87;;;;;;;27.31;36.85;99696.70;1644413;87;21605;-72
2022/04/24 10:50:23;;;;;;;6.00;2.87;;;;;;;27.27;37.31;99699.75;1644286;87;21235;-58
2022/04/24 10:52:55;;;;;;;3.87;2.67;;;;;;;27.46;36.52;99691.48;1644041;87;20991;-59
2022/04/24 10:55:26;;;;;;;4.73;2.53;;;;;;;27.50;37.27;99690.56;1644364;87;21061;-60
2022/04/24 10:58:03;;;;;;;4.17;2.10;;;;;;;27.73;37.37;99691.29;1644085;87;21077;-58
2022/04/24 11:00:34;;;;;;;3.53;2.30;;;;;;;28.12;36.12;99688.31;1642643;87;21685;-58
2022/04/24 11:03:15;;;;;;;3.80;2.27;;;;;;;28.39;36.30;99679.20;1644348;87;21144;-58
2022/04/24 11:05:45;;;;;;;4.70;2.40;;;;;;;28.68;35.59;99682.59;1644210;87;20997;-59
2022/04/24 11:08:18;;;;;;;5.10;2.60;;;;;;;29.03;34.43;99672.59;1648062;86;21130;-61
2022/04/24 11:10:45;;;;;;;4.15;2.42;;;;;;;29.06;33.60;99668.48;1651626;86;21388;-58
2022/04/24 11:13:19;;;;;;;3.67;2.60;;;;;;;29.06;34.39;99663.13;1651657;86;21094;-58
2022/04/24 11:15:48;;;;;;;5.80;2.77;;;;;;;28.93;34.13;99670.77;1651976;86;21258;-70
2022/04/24 11:18:24;;;;;;;3.92;2.62;;;;;;;28.84;33.95;99680.97;1651626;86;21422;-59
2022/04/24 11:21:03;;;;;;;4.47;2.77;;;;;;;28.62;34.03;99657.03;1652113;86;21007;-58
2022/04/24 11:23:36;;;;;;;4.23;2.60;;;;;;;28.57;34.35;99659.88;1651309;86;21060;-59
2022/04/24 11:26:05;;;;;;;4.28;2.87;;;;;;;28.71;34.73;99651.64;1651817;86;22273;-58
2022/04/24 11:28:36;;;;;;;5.23;3.47;;;;;;;28.62;35.02;99666.41;1652039;86;21811;-58
2022/04/24 11:31:18;;;;;;;3.97;3.10;;;;;;;28.66;35.07;99646.45;1651810;86;21516;-62
2022/04/24 11:33:56;;;;;;;5.23;3.33;;;;;;;28.44;35.10;99654.12;1650028;86;21028;-59
2022/04/24 11:36:33;;;;;;;5.43;3.03;;;;;;;28.31;35.36;99639.77;1652185;86;21084;-58
2022/04/24 11:39:03;;;;;;;5.77;2.97;;;;;;;28.39;34.77;99648.38;1651479;86;21094;-69
2022/04/24 11:41:32;;;;;;;;;;;;;;;28.17;35.54;99641.81;1654710;86;21776;-59